createdAt,value
2019-05-11T00:02:22.875Z,30.67
2019-05-11T00:04:53.305Z,27.53
2019-05-11T00:07:23.705Z,32.33
2019-05-11T00:09:58.152Z,31.50
2019-05-11T00:12:26.230Z,32.10
2019-05-11T00:14:57.635Z,33.83
2019-05-11T00:17:28.073Z,36.57
2019-05-11T00:19:58.769Z,41.60
2019-05-11T00:22:29.457Z,39.63
2019-05-11T00:24:59.899Z,39.13
2019-05-11T00:27:30.304Z,41.87
2019-05-11T00:30:01.083Z,42.17
2019-05-11T00:32:31.697Z,48.37
2019-05-11T00:35:02.313Z,42.83
2019-05-11T00:37:33.745Z,36.47
2019-05-11T00:40:13.760Z,39.53
2019-05-11T00:42:37.563Z,38.30
2019-05-11T00:45:09.102Z,39.63
2019-05-11T00:47:39.499Z,37.60
2019-05-11T00:50:10.001Z,40.23
2019-05-11T00:52:40.442Z,49.03
2019-05-11T00:55:10.951Z,39.23
2019-05-11T00:57:41.388Z,41.27
2019-05-11T01:00:12.095Z,34.40
2019-05-11T01:02:42.537Z,36.27
2019-05-11T01:05:13.024Z,36.23
2019-05-11T01:07:43.516Z,33.63
2019-05-11T01:10:23.759Z,37.90
2019-05-11T01:12:46.296Z,33.73
2019-05-11T01:15:16.929Z,35.83
2019-05-11T01:17:47.372Z,32.27
2019-05-11T01:20:18.763Z,32.33
2019-05-11T01:22:49.293Z,29.97
2019-05-11T01:25:20.650Z,30.60
2019-05-11T01:27:51.117Z,30.77
2019-05-11T01:30:21.680Z,29.90
2019-05-11T01:32:52.106Z,32.17
2019-05-11T01:35:22.568Z,34.47
2019-05-11T01:37:53.003Z,29.53
2019-05-11T01:40:23.390Z,31.53
2019-05-11T01:42:54.781Z,29.70
2019-05-11T01:45:25.177Z,27.53
2019-05-11T01:47:55.628Z,26.20
2019-05-11T01:50:26.131Z,30.50
2019-05-11T01:52:56.575Z,26.50
2019-05-11T01:55:26.963Z,32.93
2019-05-11T01:57:57.396Z,24.43
2019-05-11T02:00:27.851Z,28.00
2019-05-11T02:02:58.583Z,35.97
2019-05-11T02:05:30.735Z,38.73
2019-05-11T02:08:02.628Z,38.87
2019-05-11T02:10:33.157Z,46.83
2019-05-11T02:13:03.902Z,44.90
2019-05-11T02:15:34.513Z,39.57
2019-05-11T02:18:04.939Z,52.27
2019-05-11T02:20:35.371Z,51.03
2019-05-11T02:23:06.120Z,55.67
2019-05-11T02:25:36.507Z,54.77
2019-05-11T02:28:06.933Z,89.30
2019-05-11T02:30:37.386Z,84.83
2019-05-11T02:33:07.914Z,85.93
2019-05-11T02:35:38.305Z,95.77
2019-05-11T02:38:08.742Z,92.10
2019-05-11T02:40:39.221Z,83.17
2019-05-11T02:43:09.873Z,96.60
2019-05-11T02:45:42.879Z,81.23
2019-05-11T02:48:13.308Z,69.93
2019-05-11T02:50:45.139Z,72.57
2019-05-11T02:53:15.909Z,66.97
2019-05-11T02:55:47.931Z,77.80
2019-05-11T02:58:18.393Z,69.63
2019-05-11T03:00:50.380Z,61.73
2019-05-11T03:03:20.817Z,60.23
2019-05-11T03:05:51.215Z,69.37
2019-05-11T03:08:21.640Z,69.50
2019-05-11T03:10:52.036Z,63.43
2019-05-11T03:13:22.543Z,61.03
2019-05-11T03:15:53.008Z,62.93
2019-05-11T03:18:23.442Z,62.90
2019-05-11T03:20:53.844Z,55.80
2019-05-11T03:23:24.364Z,57.00
2019-05-11T03:25:54.811Z,62.80
2019-05-11T03:28:25.241Z,63.47
2019-05-11T03:30:55.627Z,64.67
2019-05-11T03:33:26.141Z,64.37
2019-05-11T03:35:56.607Z,61.13
2019-05-11T03:38:27.040Z,64.70
2019-05-11T03:40:57.434Z,67.67
2019-05-11T03:43:28.100Z,60.63
2019-05-11T03:45:58.496Z,51.03
2019-05-11T03:48:28.972Z,54.23
2019-05-11T03:50:59.375Z,48.03
2019-05-11T03:53:29.810Z,45.43
2019-05-11T03:56:00.213Z,40.90
2019-05-11T03:58:30.655Z,39.23
2019-05-11T04:01:01.141Z,32.97
2019-05-11T04:03:33.264Z,36.90
2019-05-11T04:06:03.661Z,32.40
2019-05-11T04:08:34.101Z,30.17
2019-05-11T04:11:04.757Z,31.00
2019-05-11T04:13:35.209Z,28.33
2019-05-11T04:16:05.674Z,28.60
2019-05-11T04:18:36.186Z,29.63
2019-05-11T04:21:06.621Z,28.07
2019-05-11T04:23:37.052Z,30.73
2019-05-11T04:26:08.440Z,30.17
2019-05-11T04:28:38.951Z,27.23
2019-05-11T04:31:09.435Z,28.77
2019-05-11T04:33:39.880Z,26.67
2019-05-11T04:36:10.301Z,26.00
2019-05-11T04:38:40.736Z,26.50
2019-05-11T04:41:12.424Z,22.73
2019-05-11T04:43:42.947Z,23.67
2019-05-11T04:46:13.343Z,21.10
2019-05-11T04:48:43.787Z,19.87
2019-05-11T04:51:14.780Z,19.93
2019-05-11T04:53:45.209Z,21.47
2019-05-11T04:56:15.601Z,19.60
2019-05-11T04:58:46.099Z,20.47
2019-05-11T05:01:16.561Z,17.70
2019-05-11T05:03:53.420Z,18.13
2019-05-11T05:06:24.377Z,19.17
2019-05-11T05:08:51.267Z,18.93
2019-05-11T05:11:21.701Z,18.87
2019-05-11T05:13:53.630Z,19.57
2019-05-11T05:16:24.272Z,17.73
2019-05-11T05:18:54.722Z,16.60
2019-05-11T05:21:25.160Z,18.23
2019-05-11T05:23:56.527Z,24.70
2019-05-11T05:26:26.960Z,16.63
2019-05-11T05:28:57.356Z,19.10
2019-05-11T05:31:28.069Z,18.90
2019-05-11T05:34:01.390Z,14.33
2019-05-11T05:36:31.046Z,16.47
2019-05-11T05:39:01.450Z,20.17
2019-05-11T05:41:31.958Z,20.27
2019-05-11T05:44:02.815Z,19.40
2019-05-11T05:46:33.270Z,18.40
2019-05-11T05:49:03.673Z,16.97
2019-05-11T05:51:34.342Z,17.57
2019-05-11T05:54:04.890Z,18.93
2019-05-11T05:56:35.336Z,17.00
2019-05-11T05:59:05.734Z,22.17
2019-05-11T06:01:36.226Z,19.67
2019-05-11T06:04:06.691Z,19.33
2019-05-11T06:06:37.137Z,19.47
2019-05-11T06:09:07.877Z,16.23
2019-05-11T06:11:38.328Z,15.73
2019-05-11T06:14:08.791Z,16.63
2019-05-11T06:16:39.247Z,16.10
2019-05-11T06:19:09.700Z,21.27
2019-05-11T06:21:40.212Z,17.20
2019-05-11T06:24:10.614Z,15.80
2019-05-11T06:26:41.057Z,16.03
2019-05-11T06:29:11.454Z,14.93
2019-05-11T06:31:41.888Z,18.60
2019-05-11T06:34:12.289Z,18.30
2019-05-11T06:36:42.731Z,14.70
2019-05-11T06:39:13.132Z,17.60
2019-05-11T06:41:43.658Z,22.03
2019-05-11T06:44:14.045Z,13.50
2019-05-11T06:46:45.454Z,13.33
2019-05-11T06:49:15.984Z,15.97
2019-05-11T06:51:47.018Z,14.47
2019-05-11T06:54:17.427Z,13.60
2019-05-11T06:56:47.950Z,15.63
2019-05-11T06:59:18.347Z,15.67
2019-05-11T07:01:48.843Z,16.47
2019-05-11T07:04:19.244Z,14.17
2019-05-11T07:06:50.270Z,13.10
2019-05-11T07:09:20.730Z,14.97
2019-05-11T07:11:51.191Z,22.57
2019-05-11T07:14:21.751Z,18.33
2019-05-11T07:16:53.183Z,15.33
2019-05-11T07:19:23.743Z,16.60
2019-05-11T07:21:54.723Z,14.50
2019-05-11T07:24:25.125Z,16.70
2019-05-11T07:26:55.717Z,13.53
2019-05-11T07:29:26.240Z,11.73
2019-05-11T07:32:00.660Z,9.60
2019-05-11T07:34:29.969Z,11.07
2019-05-11T07:37:00.476Z,12.63
2019-05-11T07:39:30.862Z,11.57
2019-05-11T07:42:01.338Z,9.80
2019-05-11T07:44:37.916Z,9.77
2019-05-11T07:47:03.895Z,9.27
2019-05-11T07:49:34.282Z,8.97
2019-05-11T07:52:04.725Z,12.13
2019-05-11T07:54:35.184Z,11.07
2019-05-11T07:57:07.772Z,11.37
2019-05-11T07:59:38.296Z,11.40
2019-05-11T08:02:09.050Z,10.43
2019-05-11T08:04:39.444Z,11.07
2019-05-11T08:07:09.880Z,12.47
2019-05-11T08:09:40.269Z,11.13
2019-05-11T08:12:10.708Z,10.83
2019-05-11T08:14:56.604Z,15.40
2019-05-11T08:17:13.305Z,12.13
2019-05-11T08:19:43.740Z,13.53
2019-05-11T08:22:14.180Z,11.37
2019-05-11T08:24:44.575Z,11.40
2019-05-11T08:27:15.039Z,10.37
2019-05-11T08:29:45.500Z,13.60
2019-05-11T08:32:18.164Z,11.40
2019-05-11T08:34:49.087Z,13.00
2019-05-11T08:37:19.687Z,12.13
2019-05-11T08:39:50.233Z,12.37
2019-05-11T08:42:21.924Z,12.90
2019-05-11T08:44:52.318Z,14.37
2019-05-11T08:47:22.773Z,11.77
2019-05-11T08:49:53.389Z,9.30
2019-05-11T08:52:23.833Z,12.03
2019-05-11T08:54:54.222Z,8.00
2019-05-11T08:57:24.675Z,8.17
2019-05-11T08:59:55.063Z,9.63
2019-05-11T09:02:27.637Z,16.03
2019-05-11T09:04:58.918Z,13.07
2019-05-11T09:07:29.551Z,14.67
2019-05-11T09:10:01.045Z,10.93
2019-05-11T09:12:31.540Z,7.23
2019-05-11T09:15:02.041Z,9.17
2019-05-11T09:17:33.505Z,9.07
2019-05-11T09:20:05.772Z,9.27
2019-05-11T09:22:38.124Z,8.73
2019-05-11T09:25:11.052Z,7.47
2019-05-11T09:27:43.425Z,7.53
2019-05-11T09:30:13.981Z,6.97
2019-05-11T09:32:44.449Z,11.63
2019-05-11T09:35:15.125Z,10.90
2019-05-11T09:37:45.588Z,10.13
2019-05-11T09:40:18.045Z,8.47
2019-05-11T09:42:48.257Z,11.07
2019-05-11T09:45:19.000Z,12.03
2019-05-11T09:47:49.470Z,12.87
2019-05-11T09:50:20.045Z,10.83
2019-05-11T09:52:50.431Z,11.63
2019-05-11T09:55:20.868Z,13.07
2019-05-11T09:57:51.261Z,10.23
2019-05-11T10:00:22.206Z,14.80
2019-05-11T10:02:52.608Z,10.47
2019-05-11T10:05:23.048Z,13.47
2019-05-11T10:07:53.437Z,9.37
2019-05-11T10:10:23.872Z,10.80
2019-05-11T10:12:54.330Z,10.00
2019-05-11T10:15:24.776Z,11.10
2019-05-11T10:17:55.172Z,13.47
2019-05-11T10:20:25.615Z,10.10
2019-05-11T10:22:57.958Z,13.63
2019-05-11T10:25:28.835Z,8.50
2019-05-11T10:27:59.447Z,9.17
2019-05-11T10:30:29.910Z,7.33
2019-05-11T10:33:00.351Z,7.13
2019-05-11T10:35:30.930Z,7.73
2019-05-11T10:38:01.362Z,6.20
2019-05-11T10:40:31.784Z,6.97
2019-05-11T10:43:02.466Z,7.63
2019-05-11T10:45:33.070Z,6.83
2019-05-11T10:48:03.463Z,5.73
2019-05-11T10:50:33.952Z,7.57
2019-05-11T10:53:04.757Z,8.97
2019-05-11T10:55:35.197Z,6.43
2019-05-11T10:58:05.647Z,8.80
2019-05-11T11:00:38.635Z,8.53
2019-05-11T11:03:08.644Z,8.20
2019-05-11T11:05:39.117Z,8.90
2019-05-11T11:08:09.514Z,6.40
2019-05-11T11:10:39.939Z,7.97
2019-05-11T11:13:10.342Z,7.73
2019-05-11T11:15:40.771Z,8.07
2019-05-11T11:18:11.162Z,5.27
2019-05-11T11:20:41.598Z,7.90
2019-05-11T11:23:12.091Z,7.10
2019-05-11T11:25:42.526Z,8.77
2019-05-11T11:28:12.922Z,5.73
2019-05-11T11:30:43.365Z,7.50
2019-05-11T11:33:13.751Z,5.43
2019-05-11T11:35:44.186Z,6.03
2019-05-11T11:38:14.580Z,6.07
2019-05-11T11:40:45.012Z,6.47
2019-05-11T11:43:17.889Z,9.00
2019-05-11T11:45:48.460Z,12.63
2019-05-11T11:48:19.131Z,8.30
2019-05-11T11:50:50.595Z,7.40
2019-05-11T11:53:20.982Z,9.43
2019-05-11T11:55:51.405Z,7.97
2019-05-11T11:58:23.928Z,7.97
2019-05-11T12:00:53.923Z,8.33
2019-05-11T12:03:27.542Z,6.10
2019-05-11T12:05:58.134Z,5.87
2019-05-11T12:08:28.930Z,5.50
2019-05-11T12:10:59.683Z,6.97
2019-05-11T12:13:30.079Z,6.13
2019-05-11T12:16:00.584Z,8.57
2019-05-11T12:18:30.977Z,8.37
2019-05-11T12:21:01.627Z,5.67
2019-05-11T12:23:32.063Z,6.67
2019-05-11T12:26:02.556Z,6.13
2019-05-11T12:28:32.945Z,7.67
2019-05-11T12:31:03.688Z,8.67
2019-05-11T12:33:34.183Z,6.93
2019-05-11T12:36:04.628Z,10.40
2019-05-11T12:38:35.263Z,6.43
2019-05-11T12:41:08.074Z,8.40
2019-05-11T12:43:38.247Z,5.90
2019-05-11T12:46:09.012Z,5.23
2019-05-11T12:48:39.496Z,7.43
2019-05-11T12:51:10.018Z,5.03
2019-05-11T12:53:40.454Z,5.57
2019-05-11T12:56:12.707Z,4.80
2019-05-11T12:58:43.385Z,9.17
2019-05-11T13:01:13.766Z,4.57
2019-05-11T13:03:44.446Z,4.53
2019-05-11T13:06:18.808Z,5.93
2019-05-11T13:08:48.686Z,7.40
2019-05-11T13:11:20.738Z,6.60
2019-05-11T13:13:52.733Z,4.43
2019-05-11T13:16:24.339Z,5.43
2019-05-11T13:18:54.822Z,5.57
2019-05-11T13:21:25.344Z,5.53
2019-05-11T13:23:57.726Z,4.80
2019-05-11T13:26:28.491Z,6.57
2019-05-11T13:28:58.978Z,4.07
2019-05-11T13:31:30.382Z,4.13
2019-05-11T13:34:00.816Z,4.70
2019-05-11T13:36:31.497Z,7.83
2019-05-11T13:39:02.160Z,2.93
2019-05-11T13:41:32.550Z,4.40
2019-05-11T13:44:03.069Z,4.07
2019-05-11T13:46:33.601Z,3.17
2019-05-11T13:49:05.258Z,3.27
2019-05-11T13:51:35.654Z,6.20
2019-05-11T13:54:07.930Z,6.00
2019-05-11T13:56:38.239Z,5.83
2019-05-11T13:59:10.658Z,3.63
2019-05-11T14:01:42.899Z,5.70
2019-05-11T14:04:14.924Z,12.23
2019-05-11T14:06:45.473Z,5.03
2019-05-11T14:09:18.433Z,3.83
2019-05-11T14:11:48.741Z,4.40
2019-05-11T14:14:19.254Z,4.63
2019-05-11T14:16:50.988Z,4.43
2019-05-11T14:19:21.809Z,6.13
2019-05-11T14:21:52.308Z,5.40
2019-05-11T14:24:22.739Z,9.97
2019-05-11T14:26:53.135Z,5.40
2019-05-11T14:29:23.677Z,4.07
2019-05-11T14:31:54.471Z,3.03
2019-05-11T14:34:25.023Z,3.93
2019-05-11T14:36:55.490Z,4.90
2019-05-11T14:39:27.981Z,3.87
2019-05-11T14:41:59.545Z,3.60
2019-05-11T14:44:31.280Z,3.97
2019-05-11T14:47:01.698Z,3.73
2019-05-11T14:49:33.896Z,4.03
2019-05-11T14:52:04.411Z,3.77
2019-05-11T14:54:38.032Z,4.17
2019-05-11T14:57:08.149Z,4.57
2019-05-11T14:59:38.703Z,4.13
2019-05-11T15:02:28.640Z,3.90
2019-05-11T15:04:59.129Z,3.93
2019-05-11T15:07:29.587Z,5.57
2019-05-11T15:10:00.020Z,4.43
2019-05-11T15:12:30.496Z,3.87
2019-05-11T15:15:01.009Z,4.13
2019-05-11T15:17:31.639Z,4.73
2019-05-11T15:20:02.064Z,4.83
2019-05-11T15:22:32.630Z,3.63
2019-05-11T15:25:03.199Z,4.53
2019-05-11T15:27:33.591Z,4.40
2019-05-11T15:30:04.998Z,4.53
2019-05-11T15:32:37.461Z,4.43
2019-05-11T15:35:08.123Z,2.87
2019-05-11T15:37:38.847Z,3.57
2019-05-11T15:40:15.683Z,8.97
2019-05-11T15:42:48.626Z,3.33
2019-05-11T15:45:19.988Z,5.73
2019-05-11T15:47:50.609Z,4.23
2019-05-11T15:50:21.582Z,3.23
2019-05-11T15:52:51.970Z,4.60
2019-05-11T15:55:22.476Z,3.13
2019-05-11T15:57:52.869Z,4.20
2019-05-11T16:00:23.434Z,6.00
2019-05-11T16:02:53.896Z,3.60
2019-05-11T16:05:24.404Z,3.73
2019-05-11T16:08:01.421Z,6.00
2019-05-11T16:10:28.311Z,4.93
2019-05-11T16:12:58.787Z,5.37
2019-05-11T16:15:29.226Z,4.80
2019-05-11T16:17:59.668Z,3.07
2019-05-11T16:20:30.097Z,3.07
2019-05-11T16:23:02.447Z,4.47
2019-05-11T16:25:32.678Z,6.93
2019-05-11T16:28:03.080Z,7.00
2019-05-11T16:30:33.962Z,4.60
2019-05-11T16:33:04.465Z,7.93
2019-05-11T16:35:35.031Z,3.63
2019-05-11T16:38:07.766Z,4.50
2019-05-11T16:40:38.693Z,8.17
2019-05-11T16:43:10.159Z,8.33
2019-05-11T16:45:40.588Z,3.80
2019-05-11T16:48:11.099Z,6.13
2019-05-11T16:50:41.493Z,4.27
2019-05-11T16:53:12.006Z,7.53
2019-05-11T16:55:42.394Z,3.80
2019-05-11T16:58:12.821Z,8.47
2019-05-11T17:00:43.227Z,5.43
2019-05-11T17:03:13.716Z,6.03
2019-05-11T17:05:44.104Z,4.33
2019-05-11T17:08:14.539Z,8.83
2019-05-11T17:10:48.054Z,7.67
2019-05-11T17:13:18.601Z,6.53
2019-05-11T17:15:48.991Z,6.63
2019-05-11T17:18:19.418Z,8.10
2019-05-11T17:20:50.140Z,6.77
2019-05-11T17:23:20.566Z,7.47
2019-05-11T17:25:50.975Z,18.43
2019-05-11T17:28:21.411Z,6.60
2019-05-11T17:30:51.843Z,9.97
2019-05-11T17:33:22.327Z,6.50
2019-05-11T17:35:52.715Z,6.80
2019-05-11T17:38:23.159Z,8.93
2019-05-11T17:40:53.631Z,7.93
2019-05-11T17:43:24.055Z,7.23
2019-05-11T17:45:54.579Z,10.73
2019-05-11T17:48:25.083Z,13.43
2019-05-11T17:50:55.506Z,6.23
2019-05-11T17:53:25.935Z,12.13
2019-05-11T17:55:57.871Z,10.33
2019-05-11T17:58:28.463Z,11.57
2019-05-11T18:00:59.927Z,13.60
2019-05-11T18:03:30.988Z,10.53
2019-05-11T18:06:01.383Z,12.50
2019-05-11T18:08:32.011Z,14.20
2019-05-11T18:11:02.479Z,14.10
2019-05-11T18:13:33.184Z,9.03
2019-05-11T18:16:03.877Z,10.37
2019-05-11T18:18:34.312Z,7.60
2019-05-11T18:21:04.708Z,7.43
2019-05-11T18:23:35.150Z,11.87
2019-05-11T18:26:05.591Z,9.00
2019-05-11T18:28:37.839Z,7.60
2019-05-11T18:31:08.103Z,7.13
2019-05-11T18:33:38.538Z,6.50
2019-05-11T18:36:08.926Z,9.97
2019-05-11T18:38:39.350Z,9.70
2019-05-11T18:41:09.750Z,13.93
2019-05-11T18:43:40.205Z,15.90
2019-05-11T18:46:10.593Z,14.03
2019-05-11T18:48:41.228Z,27.27
2019-05-11T18:51:11.620Z,23.00
2019-05-11T18:53:42.086Z,28.37
2019-05-11T18:56:13.532Z,27.13
2019-05-11T18:58:43.994Z,24.97
2019-05-11T19:01:14.384Z,25.80
2019-05-11T19:03:44.837Z,28.97
2019-05-11T19:06:15.235Z,28.17
2019-05-11T19:08:47.718Z,24.17
2019-05-11T19:11:18.234Z,26.37
2019-05-11T19:13:49.877Z,24.93
2019-05-11T19:16:20.281Z,24.77
2019-05-11T19:18:50.723Z,25.67
2019-05-11T19:21:21.121Z,23.87
2019-05-11T19:23:51.554Z,24.67
2019-05-11T19:26:22.426Z,25.97
2019-05-11T19:28:53.019Z,24.57
2019-05-11T19:31:23.491Z,22.40
2019-05-11T19:33:58.692Z,22.67
2019-05-11T19:36:30.832Z,23.13
2019-05-11T19:39:01.615Z,21.63
2019-05-11T19:41:33.529Z,26.73
2019-05-11T19:44:05.424Z,24.80
2019-05-11T19:46:38.583Z,29.40
2019-05-11T19:49:09.754Z,26.27
2019-05-11T19:51:42.596Z,22.93
2019-05-11T19:54:12.484Z,25.87
2019-05-11T19:56:42.999Z,26.50
2019-05-11T19:59:13.614Z,28.17
2019-05-11T20:01:44.051Z,24.47
2019-05-11T20:04:14.517Z,26.93
2019-05-11T20:06:45.036Z,22.53
2019-05-11T20:09:15.518Z,31.20
2019-05-11T20:11:47.620Z,28.90
2019-05-11T20:14:18.195Z,30.40
2019-05-11T20:16:48.629Z,26.67
2019-05-11T20:19:19.105Z,25.27
2019-05-11T20:21:49.568Z,22.73
2019-05-11T20:24:20.074Z,21.73
2019-05-11T20:26:50.518Z,24.83
2019-05-11T20:29:20.914Z,28.30
2019-05-11T20:31:52.464Z,28.50
2019-05-11T20:34:22.934Z,32.60
2019-05-11T20:36:53.523Z,33.17
2019-05-11T20:39:24.056Z,34.90
2019-05-11T20:41:54.503Z,35.57
2019-05-11T20:44:24.977Z,31.93
2019-05-11T20:46:57.527Z,29.50
2019-05-11T20:49:28.196Z,28.63
2019-05-11T20:51:58.927Z,25.80
2019-05-11T20:54:29.399Z,30.80
2019-05-11T20:56:59.875Z,25.27
2019-05-11T20:59:30.456Z,25.50
2019-05-11T21:02:01.066Z,25.23
2019-05-11T21:04:31.670Z,21.23
2019-05-11T21:07:02.628Z,23.07
2019-05-11T21:09:33.514Z,16.23
2019-05-11T21:12:03.987Z,15.97
2019-05-11T21:14:34.689Z,21.20
2019-05-11T21:17:05.418Z,15.60
2019-05-11T21:19:35.814Z,14.87
2019-05-11T21:22:08.745Z,15.87
2019-05-11T21:24:40.301Z,15.90
2019-05-11T21:27:13.765Z,12.87
2019-05-11T21:29:49.124Z,14.60
2019-05-11T21:32:19.962Z,14.03
2019-05-11T21:34:50.437Z,14.83
2019-05-11T21:37:20.954Z,17.33
2019-05-11T21:39:53.747Z,17.57
2019-05-11T21:42:25.266Z,19.17
2019-05-11T21:45:01.426Z,15.23
2019-05-11T21:47:41.925Z,16.77
2019-05-11T21:50:19.211Z,19.73
2019-05-11T21:52:54.259Z,15.33
2019-05-11T21:55:24.824Z,18.93
2019-05-11T21:57:59.819Z,19.77
2019-05-11T22:00:30.792Z,17.07
2019-05-11T22:03:03.289Z,16.30
2019-05-11T22:05:34.490Z,16.73
2019-05-11T22:08:05.548Z,15.43
2019-05-11T22:10:38.351Z,15.27
2019-05-11T22:13:08.444Z,15.47
2019-05-11T22:15:38.842Z,16.53
2019-05-11T22:18:10.037Z,16.27
2019-05-11T22:20:41.611Z,19.33
2019-05-11T22:23:12.387Z,16.83
2019-05-11T22:25:42.975Z,19.37
2019-05-11T22:28:13.421Z,15.43
2019-05-11T22:30:43.903Z,15.10
2019-05-11T22:33:14.343Z,14.60
2019-05-11T22:35:44.801Z,14.97
2019-05-11T22:38:15.285Z,15.13
2019-05-11T22:40:45.740Z,15.67
2019-05-11T22:43:18.188Z,14.93
2019-05-11T22:45:48.622Z,14.93
2019-05-11T22:48:19.178Z,13.20
2019-05-11T22:50:50.667Z,16.20
2019-05-11T22:53:21.285Z,16.03
2019-05-11T22:55:51.748Z,17.67
2019-05-11T22:58:22.175Z,15.43
2019-05-11T23:00:52.572Z,17.17
2019-05-11T23:03:23.084Z,19.47
2019-05-11T23:05:53.479Z,17.07
2019-05-11T23:08:23.913Z,17.80
2019-05-11T23:10:54.349Z,16.40
2019-05-11T23:13:24.779Z,14.60
2019-05-11T23:15:55.219Z,15.93
2019-05-11T23:18:25.618Z,20.60
2019-05-11T23:20:58.210Z,17.87
2019-05-11T23:23:28.407Z,20.03
2019-05-11T23:25:58.944Z,16.97
2019-05-11T23:28:29.378Z,17.73
2019-05-11T23:31:02.632Z,13.13
2019-05-11T23:33:33.140Z,14.13
2019-05-11T23:36:03.575Z,19.33
2019-05-11T23:38:34.132Z,14.27
2019-05-11T23:41:04.619Z,16.83
2019-05-11T23:43:35.018Z,12.97
2019-05-11T23:46:05.452Z,14.13
2019-05-11T23:48:38.381Z,16.70
2019-05-11T23:51:08.779Z,12.03
2019-05-11T23:53:39.274Z,12.37
2019-05-11T23:56:09.705Z,14.77
2019-05-11T23:58:40.100Z,15.07
